This is the latest recevied weather packets stored in our database for station/object SP6DW-13. If no packets are shown the sender has not sent any weather packets the latest 10 day(s).
| Time | Temp. | Humidity | Pressure | Rain* | Wind** | Luminosity | Snow |
|---|---|---|---|---|---|---|---|
| 1777211117 | 13.33° C | 36% | 1025.5 hPa | 0 mm | - | - | - |
| 1777207523 | 12.78° C | 38% | 1025.7 hPa | 0 mm | - | - | - |
| 1777206916 | 12.78° C | 39% | 1025.8 hPa | 0 mm | - | - | - |
| 1777204516 | 11.67° C | 41% | 1026 hPa | 0 mm | - | - | - |
| 1777203924 | 11.67° C | 41% | 1026 hPa | 0 mm | - | - | - |
| 1777203316 | 11.11° C | 43% | 1026 hPa | 0 mm | - | - | - |
| 1777201516 | 10.56° C | 43% | 1026 hPa | 0 mm | - | - | - |
| 1777200316 | 10.56° C | 44% | 1025.8 hPa | 0 mm | - | - | - |
| 1777198536 | 10° C | 46% | 1025.8 hPa | 0 mm | - | - | - |
| 1777196116 | 8.33° C | 55% | 1025.6 hPa | 0 mm | - | - | - |
| 1777191624 | 7.22° C | 65% | 1025.5 hPa | 0 mm | - | - | - |
| 1777191016 | 6.67° C | 67% | 1025.3 hPa | 0 mm | - | - | - |
| 1777186816 | 6.11° C | 73% | 1024.8 hPa | 0 mm | - | - | - |
| 1777186243 | 5.56° C | 74% | 1024.6 hPa | 0 mm | - | - | - |
| 1777185615 | 5.56° C | 74% | 1024.5 hPa | 0 mm | - | - | - |
| 1777185021 | 5.56° C | 74% | 1024.3 hPa | 0 mm | - | - | - |
| 1777183220 | 5.56° C | 74% | 1023.8 hPa | 0 mm | - | - | - |
| 1777182016 | 5° C | 75% | 1023.6 hPa | 0 mm | - | - | - |
| 1777179625 | 4.44° C | 77% | 1022.9 hPa | 0 mm | - | - | - |
| 1777168223 | 6.11° C | 67% | 1019.7 hPa | 0 mm | - | - | - |
| 1777167026 | 6.11° C | 66% | 1019.6 hPa | 0 mm | - | - | - |
| 1777161668 | 7.78° C | 72% | 1018 hPa | 0 mm | - | - | - |
| 1777159816 | 8.89° C | 71% | 1017.2 hPa | 0 mm | - | - | - |
| 1777152616 | 11.67° C | 54% | 1015.9 hPa | 0 mm | - | - | - |
| 1777150816 | 12.22° C | 50% | 1015.5 hPa | 0 mm | - | - | - |
* Rain latest hour (hover to see other rain measurements)
** Current wind speed in m/s (hover to see current wind gust speed)